createdAt,value
2022-10-01T00:02:08.029Z,100939.73
2022-10-01T00:04:42.178Z,100924.84
2022-10-01T00:07:10.667Z,100920.02
2022-10-01T00:09:38.909Z,100931.46
2022-10-01T00:12:05.921Z,100938.66
2022-10-01T00:14:33.239Z,100934.96
2022-10-01T00:17:00.365Z,100932.35
2022-10-01T00:19:28.287Z,100933.10
2022-10-01T00:21:55.312Z,100929.33
2022-10-01T00:24:26.359Z,100889.13
2022-10-01T00:26:54.673Z,100857.38
2022-10-01T00:29:23.332Z,100870.36
2022-10-01T00:31:51.355Z,100867.59
2022-10-01T00:34:19.447Z,100845.34
2022-10-01T00:36:46.702Z,100850.90
2022-10-01T00:39:15.988Z,100864.90
2022-10-01T00:41:43.052Z,100883.88
2022-10-01T00:44:36.826Z,100910.64
2022-10-01T00:47:28.157Z,100920.58
2022-10-01T00:50:03.822Z,100915.52
2022-10-01T00:52:32.865Z,100919.64
2022-10-01T00:55:12.566Z,100939.45
2022-10-01T00:57:41.076Z,100945.98
2022-10-01T01:00:11.117Z,100954.43
2022-10-01T01:02:43.497Z,100960.41
2022-10-01T01:05:15.255Z,100957.64
2022-10-01T01:07:45.659Z,100946.96
2022-10-01T01:10:18.961Z,100930.32
2022-10-01T01:12:54.421Z,100924.77
2022-10-01T01:15:37.219Z,100922.20
2022-10-01T01:18:23.082Z,100918.77
2022-10-01T01:20:56.730Z,100909.20
2022-10-01T01:23:45.849Z,100896.96
2022-10-01T01:26:29.025Z,100901.94
2022-10-01T01:29:05.004Z,100905.20
2022-10-01T01:31:39.290Z,100911.44
2022-10-01T01:34:13.980Z,100906.69
2022-10-01T01:36:47.347Z,100910.44
2022-10-01T01:39:18.253Z,100907.02
2022-10-01T01:41:52.675Z,100903.90
2022-10-01T01:44:26.932Z,100913.00
2022-10-01T01:46:57.094Z,100912.98
2022-10-01T01:49:24.493Z,100898.34
2022-10-01T01:52:06.091Z,100887.55
2022-10-01T01:54:35.970Z,100886.70
2022-10-01T01:57:04.666Z,100896.48
2022-10-01T01:59:34.171Z,100900.48
2022-10-01T02:02:01.880Z,100895.25
2022-10-01T02:04:38.024Z,100885.52
2022-10-01T02:07:40.578Z,100895.06
2022-10-01T02:10:24.707Z,100913.84
2022-10-01T02:13:05.118Z,100915.39
2022-10-01T02:15:47.161Z,100919.63
2022-10-01T02:18:32.441Z,100922.33
2022-10-01T02:21:22.923Z,100932.27
2022-10-01T02:23:56.477Z,100946.42
2022-10-01T02:26:28.035Z,100939.20
2022-10-01T02:28:58.488Z,100936.08
2022-10-01T02:31:28.962Z,100942.64
2022-10-01T02:33:58.485Z,100950.83
2022-10-01T02:36:29.935Z,100954.48
2022-10-01T02:38:59.167Z,100951.89
2022-10-01T02:41:34.785Z,100957.46
2022-10-01T02:44:22.022Z,100960.88
2022-10-01T02:47:17.186Z,100957.23
2022-10-01T02:49:44.994Z,100957.83
2022-10-01T02:52:32.544Z,100958.90
2022-10-01T02:55:07.853Z,100963.36
2022-10-01T02:57:37.239Z,100965.62
2022-10-01T03:00:11.550Z,100964.45
2022-10-01T03:02:39.435Z,100953.91
2022-10-01T03:05:07.685Z,100953.89
2022-10-01T03:07:36.407Z,100955.19
2022-10-01T03:10:08.320Z,100956.91
2022-10-01T03:12:36.209Z,100963.04
2022-10-01T03:15:04.388Z,100976.36
2022-10-01T03:17:31.437Z,100978.27
2022-10-01T03:19:58.712Z,100975.93
2022-10-01T03:22:27.191Z,100979.46
2022-10-01T03:24:54.407Z,100988.67
2022-10-01T03:27:21.977Z,100981.11
2022-10-01T03:29:51.762Z,100981.14
2022-10-01T03:32:19.974Z,100986.34
2022-10-01T03:34:48.337Z,100994.64
2022-10-01T03:37:15.591Z,100993.19
2022-10-01T03:39:43.042Z,100997.61
2022-10-01T03:42:10.095Z,101005.33
2022-10-01T03:44:37.451Z,101003.58
2022-10-01T03:47:04.493Z,101005.15
2022-10-01T03:49:31.449Z,101013.60
2022-10-01T03:52:00.028Z,101017.23
2022-10-01T03:54:27.173Z,101016.98
2022-10-01T03:56:54.842Z,101014.50
2022-10-01T03:59:22.292Z,101018.93
2022-10-01T04:01:49.543Z,101012.05
2022-10-01T04:04:16.806Z,101010.88
2022-10-01T04:06:43.855Z,101012.27
2022-10-01T04:09:11.502Z,101013.12
2022-10-01T04:11:39.698Z,101009.06
2022-10-01T04:14:06.834Z,101018.84
2022-10-01T04:16:36.729Z,101022.80
2022-10-01T04:19:06.152Z,101022.03
2022-10-01T04:21:34.842Z,101020.23
2022-10-01T04:24:05.481Z,101025.44
2022-10-01T04:26:32.724Z,101032.80
2022-10-01T04:29:02.029Z,101037.70
2022-10-01T04:31:35.583Z,101036.21
2022-10-01T04:34:03.897Z,101038.29
2022-10-01T04:36:31.454Z,101047.38
2022-10-01T04:39:02.061Z,101055.95
2022-10-01T04:41:33.474Z,101054.83
2022-10-01T04:44:02.945Z,101057.93
2022-10-01T04:46:30.749Z,101059.39
2022-10-01T04:48:59.284Z,101057.80
2022-10-01T04:51:30.116Z,101057.05
2022-10-01T04:53:58.817Z,101060.84
2022-10-01T04:56:25.863Z,101059.99
2022-10-01T04:58:52.910Z,101055.66
2022-10-01T05:01:21.020Z,101052.88
2022-10-01T05:03:49.620Z,101060.02
2022-10-01T05:06:16.713Z,101068.20
2022-10-01T05:08:45.612Z,101074.39
2022-10-01T05:11:13.266Z,101085.81
2022-10-01T05:13:42.482Z,101096.55
2022-10-01T05:16:12.667Z,101099.79
2022-10-01T05:18:40.965Z,101096.27
2022-10-01T05:21:12.692Z,101086.34
2022-10-01T05:23:39.988Z,101090.69
2022-10-01T05:26:07.845Z,101096.67
2022-10-01T05:28:37.521Z,101103.45
2022-10-01T05:31:05.051Z,101107.18
2022-10-01T05:33:33.892Z,101101.87
2022-10-01T05:36:06.269Z,101100.48
2022-10-01T05:38:38.146Z,101102.66
2022-10-01T05:41:06.284Z,101113.48
2022-10-01T05:43:34.680Z,101121.72
2022-10-01T05:46:03.723Z,101129.70
2022-10-01T05:48:35.409Z,101128.83
2022-10-01T05:51:08.441Z,101129.30
2022-10-01T05:53:38.030Z,101129.63
2022-10-01T05:56:09.383Z,101132.58
2022-10-01T05:58:36.840Z,101134.70
2022-10-01T06:01:05.894Z,101135.23
2022-10-01T06:03:35.377Z,101142.24
2022-10-01T06:06:02.617Z,101146.25
2022-10-01T06:08:29.577Z,101147.31
2022-10-01T06:11:03.441Z,101147.48
2022-10-01T06:13:32.335Z,101150.27
2022-10-01T06:15:59.276Z,101158.29
2022-10-01T06:18:27.657Z,101163.76
2022-10-01T06:20:55.010Z,101164.57
2022-10-01T06:23:22.044Z,101165.80
2022-10-01T06:25:49.005Z,101170.48
2022-10-01T06:28:19.066Z,101178.94
2022-10-01T06:30:47.094Z,101184.13
2022-10-01T06:33:16.603Z,101187.27
2022-10-01T06:35:49.897Z,101196.00
2022-10-01T06:38:20.427Z,101195.48
2022-10-01T06:40:59.253Z,101202.62
2022-10-01T06:43:28.979Z,101207.58
2022-10-01T06:45:56.559Z,101208.33
2022-10-01T06:48:23.768Z,101211.27
2022-10-01T06:50:52.551Z,101215.70
2022-10-01T06:53:19.702Z,101214.27
2022-10-01T06:55:46.705Z,101217.70
2022-10-01T06:58:16.577Z,101219.15
2022-10-01T07:00:45.303Z,101229.61
2022-10-01T07:03:21.419Z,101228.85
2022-10-01T07:05:50.617Z,101230.65
2022-10-01T07:08:18.372Z,101245.66
2022-10-01T07:10:45.832Z,101257.02
2022-10-01T07:13:18.568Z,101260.21
2022-10-01T07:15:46.544Z,101262.06
2022-10-01T07:18:14.333Z,101266.06
2022-10-01T07:20:42.117Z,101278.76
2022-10-01T07:23:13.331Z,101286.62
2022-10-01T07:25:41.425Z,101288.60
2022-10-01T07:28:16.833Z,101292.69
2022-10-01T07:31:02.267Z,101293.17
2022-10-01T07:33:30.321Z,101292.73
2022-10-01T07:36:00.952Z,101294.55
2022-10-01T07:38:27.871Z,101293.70
2022-10-01T07:40:55.155Z,101289.90
2022-10-01T07:43:23.020Z,101293.75
2022-10-01T07:45:50.408Z,101299.50
2022-10-01T07:48:19.749Z,101306.17
2022-10-01T07:50:50.320Z,101319.21
2022-10-01T07:53:17.968Z,101322.84
2022-10-01T07:55:45.543Z,101329.95
2022-10-01T07:58:13.092Z,101336.09
2022-10-01T08:00:40.248Z,101344.76
2022-10-01T08:03:07.385Z,101342.61
2022-10-01T08:05:36.184Z,101340.71
2022-10-01T08:08:08.872Z,101340.88
2022-10-01T08:10:37.890Z,101343.70
2022-10-01T08:13:08.994Z,101358.91
2022-10-01T08:15:36.540Z,101370.54
2022-10-01T08:18:05.141Z,101380.20
2022-10-01T08:20:32.588Z,101386.66
2022-10-01T08:23:15.496Z,101384.19
2022-10-01T08:25:44.719Z,101385.33
2022-10-01T08:28:13.124Z,101390.63
2022-10-01T08:30:42.287Z,101401.80
2022-10-01T08:33:12.567Z,101396.54
2022-10-01T08:35:41.043Z,101391.95
2022-10-01T08:38:08.360Z,101390.35
2022-10-01T08:40:43.587Z,101400.34
2022-10-01T08:43:30.910Z,101413.70
2022-10-01T08:46:03.434Z,101413.33
2022-10-01T08:48:45.487Z,101412.42
2022-10-01T08:51:37.688Z,101414.13
2022-10-01T08:54:20.224Z,101415.73
2022-10-01T08:56:48.103Z,101417.55
2022-10-01T08:59:33.368Z,101419.48
2022-10-01T09:02:00.529Z,101424.39
2022-10-01T09:04:29.933Z,101425.62
2022-10-01T09:07:12.774Z,101427.46
2022-10-01T09:10:00.786Z,101427.18
2022-10-01T09:13:14.007Z,101438.36
2022-10-01T09:16:05.299Z,101443.48
2022-10-01T09:19:04.525Z,101441.59
2022-10-01T09:21:51.144Z,101447.10
2022-10-01T09:24:31.802Z,101449.61
2022-10-01T09:26:59.157Z,101451.02
2022-10-01T09:29:44.943Z,101450.65
2022-10-01T09:32:17.831Z,101461.77
2022-10-01T09:34:45.288Z,101473.17
2022-10-01T09:37:32.610Z,101476.21
2022-10-01T09:40:20.758Z,101485.35
2022-10-01T09:42:48.308Z,101482.42
2022-10-01T09:45:17.296Z,101476.00
2022-10-01T09:47:48.856Z,101479.21
2022-10-01T09:50:26.141Z,101481.79
2022-10-01T09:52:54.112Z,101484.82
2022-10-01T09:55:37.090Z,101495.35
2022-10-01T09:58:21.280Z,101493.11
2022-10-01T10:00:53.175Z,101497.45
2022-10-01T10:03:27.474Z,101501.18
2022-10-01T10:05:55.227Z,101505.20
2022-10-01T10:08:42.939Z,101508.14
2022-10-01T10:11:23.018Z,101513.38
2022-10-01T10:13:54.020Z,101516.31
2022-10-01T10:16:28.851Z,101517.33
2022-10-01T10:19:00.845Z,101522.36
2022-10-01T10:21:30.971Z,101527.80
2022-10-01T10:24:00.519Z,101530.21
2022-10-01T10:26:33.125Z,101535.59
2022-10-01T10:29:02.890Z,101536.39
2022-10-01T10:31:42.059Z,101533.45
2022-10-01T10:34:16.828Z,101537.77
2022-10-01T10:36:45.918Z,101546.42
2022-10-01T10:40:00.898Z,101552.45
2022-10-01T10:42:29.035Z,101552.91
2022-10-01T10:45:01.055Z,101548.30
2022-10-01T10:47:33.204Z,101550.67
2022-10-01T10:50:06.198Z,101552.84
2022-10-01T10:52:33.921Z,101554.85
2022-10-01T10:55:03.554Z,101560.20
2022-10-01T10:57:34.291Z,101565.61
2022-10-01T11:00:19.963Z,101568.39
2022-10-01T11:03:01.972Z,101565.21
2022-10-01T11:05:32.196Z,101566.88
2022-10-01T11:08:06.184Z,101567.24
2022-10-01T11:10:48.401Z,101572.98
2022-10-01T11:13:44.738Z,101573.18
2022-10-01T11:16:31.274Z,101571.05
2022-10-01T11:18:58.933Z,101574.91
2022-10-01T11:21:48.599Z,101567.06
2022-10-01T11:24:53.414Z,101559.45
2022-10-01T11:27:49.474Z,101562.04
2022-10-01T11:30:22.837Z,101562.80
2022-10-01T11:33:18.871Z,101566.75
2022-10-01T11:36:16.940Z,101581.38
2022-10-01T11:38:50.086Z,101585.82
2022-10-01T11:41:41.702Z,101588.75
2022-10-01T11:44:08.794Z,101590.25
2022-10-01T11:46:54.353Z,101592.92
2022-10-01T11:49:34.164Z,101585.06
2022-10-01T11:52:08.865Z,101575.86
2022-10-01T11:54:55.985Z,101570.23
2022-10-01T11:57:43.506Z,101576.85
2022-10-01T12:00:13.220Z,101584.71
2022-10-01T12:02:57.107Z,101586.77
2022-10-01T12:05:34.597Z,101584.35
2022-10-01T12:08:15.218Z,101581.42
2022-10-01T12:10:49.701Z,101581.53
2022-10-01T12:13:16.649Z,101579.98
2022-10-01T12:16:16.230Z,101587.48
2022-10-01T12:18:58.395Z,101589.19
2022-10-01T12:21:58.314Z,101592.41
2022-10-01T12:24:40.619Z,101596.12
2022-10-01T12:27:25.451Z,101593.73
2022-10-01T12:30:07.278Z,101587.65
2022-10-01T12:32:52.756Z,101580.76
2022-10-01T12:35:26.271Z,101579.80
2022-10-01T12:38:22.186Z,101578.84
2022-10-01T12:40:55.480Z,101581.48
2022-10-01T12:43:31.231Z,101588.66
2022-10-01T12:46:43.469Z,101591.54
2022-10-01T12:49:22.774Z,101595.03
2022-10-01T12:51:58.689Z,101589.96
2022-10-01T12:55:05.070Z,101591.89
2022-10-01T12:57:45.185Z,101587.13
2022-10-01T13:00:26.428Z,101588.52
2022-10-01T13:03:25.119Z,101579.64
2022-10-01T13:06:00.266Z,101575.64
2022-10-01T13:08:42.662Z,101579.76
2022-10-01T13:11:37.506Z,101581.03
2022-10-01T13:14:07.363Z,101578.63
2022-10-01T13:16:37.820Z,101577.73
2022-10-01T13:19:25.863Z,101576.53
2022-10-01T13:22:07.961Z,101572.16
2022-10-01T13:25:01.445Z,101562.75
2022-10-01T13:27:55.169Z,101565.05
2022-10-01T13:30:26.759Z,101569.60
2022-10-01T13:32:54.976Z,101584.11
2022-10-01T13:35:39.536Z,101592.58
2022-10-01T13:38:25.885Z,101581.93
2022-10-01T13:41:22.159Z,101572.05
2022-10-01T13:43:57.344Z,101563.55
2022-10-01T13:46:31.665Z,101554.79
2022-10-01T13:49:30.351Z,101544.38
2022-10-01T13:51:58.482Z,101543.73
2022-10-01T13:54:35.564Z,101546.90
2022-10-01T13:57:10.849Z,101556.54
2022-10-01T13:59:39.044Z,101564.89
2022-10-01T14:02:34.189Z,101575.27
2022-10-01T14:05:27.908Z,101584.14
2022-10-01T14:08:27.080Z,101597.42
2022-10-01T14:11:21.385Z,101602.11
2022-10-01T14:14:12.974Z,101602.95
2022-10-01T14:16:47.022Z,101607.30
2022-10-01T14:19:22.491Z,101600.49
2022-10-01T14:22:02.092Z,101604.23
2022-10-01T14:24:38.899Z,101612.63
2022-10-01T14:27:30.958Z,101619.58
2022-10-01T14:30:16.893Z,101612.63
2022-10-01T14:33:22.149Z,101612.04
2022-10-01T14:36:07.438Z,101613.54
2022-10-01T14:38:34.783Z,101612.15
2022-10-01T14:41:02.445Z,101612.84
2022-10-01T14:43:31.567Z,101612.52
2022-10-01T14:46:06.788Z,101615.95
2022-10-01T14:48:37.519Z,101621.31
2022-10-01T14:51:08.651Z,101620.07
2022-10-01T14:53:38.995Z,101613.65
2022-10-01T14:56:14.289Z,101618.41
2022-10-01T14:58:45.375Z,101625.52
2022-10-01T15:01:21.331Z,101628.31
2022-10-01T15:03:50.677Z,101625.67
2022-10-01T15:06:23.720Z,101624.99
2022-10-01T15:08:53.115Z,101621.71
2022-10-01T15:11:23.381Z,101624.33
2022-10-01T15:13:55.105Z,101618.82
2022-10-01T15:16:28.421Z,101624.86
2022-10-01T15:18:59.689Z,101630.14
2022-10-01T15:21:35.632Z,101641.06
2022-10-01T15:24:05.028Z,101643.83
2022-10-01T15:26:35.186Z,101638.86
2022-10-01T15:29:07.922Z,101640.48
2022-10-01T15:31:44.772Z,101653.34
2022-10-01T15:34:17.057Z,101658.26
2022-10-01T15:36:45.646Z,101660.29
2022-10-01T15:39:33.252Z,101660.92
2022-10-01T15:42:12.577Z,101673.11
2022-10-01T15:44:47.434Z,101670.91
2022-10-01T15:47:21.646Z,101671.29
2022-10-01T15:50:19.106Z,101671.07
2022-10-01T15:52:51.879Z,101671.05
2022-10-01T15:55:34.096Z,101675.20
2022-10-01T15:58:06.237Z,101674.98
2022-10-01T16:00:59.013Z,101681.69
2022-10-01T16:03:36.500Z,101687.02
2022-10-01T16:06:06.617Z,101681.31
2022-10-01T16:08:58.245Z,101681.37
2022-10-01T16:11:33.965Z,101679.05
2022-10-01T16:14:24.505Z,101676.54
2022-10-01T16:17:19.119Z,101674.02
2022-10-01T16:19:53.768Z,101678.42
2022-10-01T16:22:27.741Z,101683.55
2022-10-01T16:25:03.976Z,101681.30
2022-10-01T16:27:38.392Z,101686.54
2022-10-01T16:30:11.172Z,101685.79
2022-10-01T16:32:46.639Z,101681.73
2022-10-01T16:35:23.446Z,101679.86
2022-10-01T16:37:57.094Z,101679.70
2022-10-01T16:40:35.208Z,101686.08
2022-10-01T16:43:08.562Z,101693.55
2022-10-01T16:45:43.127Z,101705.15
2022-10-01T16:48:19.058Z,101706.44
2022-10-01T16:50:54.603Z,101707.56
2022-10-01T16:53:25.231Z,101708.48
2022-10-01T16:55:59.592Z,101710.45
2022-10-01T16:58:27.876Z,101709.17
2022-10-01T17:00:56.204Z,101710.98
2022-10-01T17:03:24.841Z,101710.02
2022-10-01T17:05:54.247Z,101708.95
2022-10-01T17:08:24.477Z,101703.98
2022-10-01T17:11:01.013Z,101705.11
2022-10-01T17:13:36.564Z,101711.63
2022-10-01T17:16:07.233Z,101714.79
2022-10-01T17:18:40.663Z,101710.73
2022-10-01T17:21:10.130Z,101712.15
2022-10-01T17:23:39.195Z,101711.24
2022-10-01T17:26:10.094Z,101711.49
2022-10-01T17:28:43.784Z,101711.88
2022-10-01T17:31:16.988Z,101721.60
2022-10-01T17:33:46.350Z,101733.52
2022-10-01T17:36:15.521Z,101729.56
2022-10-01T17:38:45.585Z,101730.69
2022-10-01T17:41:16.695Z,101732.73
2022-10-01T17:43:44.270Z,101736.17
2022-10-01T17:46:11.547Z,101745.42
2022-10-01T17:48:40.706Z,101744.73
2022-10-01T17:51:09.511Z,101747.84
2022-10-01T17:53:42.292Z,101755.61
2022-10-01T17:56:14.858Z,101758.05
2022-10-01T17:58:45.717Z,101760.46
2022-10-01T18:01:20.243Z,101764.95
2022-10-01T18:03:58.640Z,101768.02
2022-10-01T18:06:27.750Z,101777.50
2022-10-01T18:08:56.520Z,101782.52
2022-10-01T18:11:26.804Z,101778.27
2022-10-01T18:13:54.191Z,101779.61
2022-10-01T18:16:22.525Z,101782.98
2022-10-01T18:21:49.478Z,101782.16
2022-10-01T18:24:18.433Z,101780.89
2022-10-01T18:26:46.142Z,101782.34
2022-10-01T18:29:27.779Z,101787.97
2022-10-01T18:32:02.265Z,101802.05
2022-10-01T18:34:55.410Z,101807.14
2022-10-01T18:37:48.212Z,101817.16
2022-10-01T18:40:28.699Z,101827.13
2022-10-01T18:43:31.869Z,101829.87
2022-10-01T18:46:34.931Z,101834.64
2022-10-01T18:49:37.756Z,101847.21
2022-10-01T18:52:18.539Z,101847.80
2022-10-01T18:55:06.228Z,101855.83
2022-10-01T18:58:06.413Z,101852.53
2022-10-01T19:01:15.858Z,101853.62
2022-10-01T19:04:19.328Z,101859.90
2022-10-01T19:06:58.035Z,101865.13
2022-10-01T19:09:30.931Z,101874.83
2022-10-01T19:12:47.346Z,101878.14
2022-10-01T19:15:24.527Z,101882.23
2022-10-01T19:18:22.903Z,101881.80
2022-10-01T19:20:58.745Z,101883.85
2022-10-01T19:23:29.497Z,101880.13
2022-10-01T19:26:04.215Z,101882.81
2022-10-01T19:28:47.070Z,101889.92
2022-10-01T19:31:18.647Z,101888.08
2022-10-01T19:33:57.305Z,101893.48
2022-10-01T19:36:33.746Z,101890.11
2022-10-01T19:39:10.867Z,101895.64
2022-10-01T19:42:00.726Z,101896.91
2022-10-01T19:45:03.124Z,101907.18
2022-10-01T19:48:08.765Z,101909.22
2022-10-01T19:50:41.809Z,101918.30
2022-10-01T19:53:29.787Z,101921.73
2022-10-01T19:56:02.292Z,101926.60
2022-10-01T19:58:36.882Z,101934.89
2022-10-01T20:01:05.370Z,101939.59
2022-10-01T20:03:44.536Z,101937.77
2022-10-01T20:06:41.964Z,101938.40
2022-10-01T20:09:32.494Z,101942.42
2022-10-01T20:12:15.680Z,101940.60
2022-10-01T20:15:08.610Z,101944.34
2022-10-01T20:17:56.260Z,101943.55
2022-10-01T20:20:43.801Z,101944.24
2022-10-01T20:23:29.717Z,101940.13
2022-10-01T20:26:02.798Z,101945.21
2022-10-01T20:28:30.011Z,101944.94
2022-10-01T20:31:25.315Z,101951.41
2022-10-01T20:34:01.244Z,101956.87
2022-10-01T20:36:39.472Z,101959.17
2022-10-01T20:39:17.828Z,101960.77
2022-10-01T20:41:48.330Z,101955.80
2022-10-01T20:44:23.284Z,101952.64
2022-10-01T20:46:56.579Z,101955.09
2022-10-01T20:49:53.434Z,101953.39
2022-10-01T20:52:38.622Z,101949.05
2022-10-01T20:55:12.501Z,101950.67
2022-10-01T20:57:55.171Z,101956.72
2022-10-01T21:00:27.520Z,101959.88
2022-10-01T21:03:20.257Z,101958.32
2022-10-01T21:06:21.702Z,101964.41
2022-10-01T21:08:59.760Z,101971.27
2022-10-01T21:11:34.964Z,101961.81
2022-10-01T21:14:25.586Z,101958.39
2022-10-01T21:17:33.465Z,101958.92
2022-10-01T21:20:39.615Z,101961.29
2022-10-01T21:23:15.871Z,101960.95
2022-10-01T21:25:43.841Z,101955.09
2022-10-01T21:28:44.138Z,101957.80
2022-10-01T21:31:45.144Z,101968.02
2022-10-01T21:34:14.309Z,101976.58
2022-10-01T21:37:20.784Z,101976.09
2022-10-01T21:40:36.779Z,101975.19
2022-10-01T21:43:47.350Z,101986.20
2022-10-01T21:46:40.421Z,101984.38
2022-10-01T21:49:38.382Z,101986.31
2022-10-01T21:52:31.221Z,101990.42
2022-10-01T21:55:04.731Z,101987.80
2022-10-01T21:58:17.650Z,101991.39
2022-10-01T22:01:08.750Z,101986.78
2022-10-01T22:03:51.280Z,101992.77
2022-10-01T22:06:28.297Z,102002.40
2022-10-01T22:08:55.405Z,102007.32
2022-10-01T22:11:32.145Z,102009.84
2022-10-01T22:14:04.749Z,102009.84
2022-10-01T22:17:06.421Z,102008.87
2022-10-01T22:19:39.412Z,102019.40
2022-10-01T22:22:39.353Z,102015.92
2022-10-01T22:25:12.519Z,102016.30
2022-10-01T22:27:54.363Z,102023.73
2022-10-01T22:30:33.038Z,102023.77
2022-10-01T22:33:14.792Z,102026.56
2022-10-01T22:36:09.473Z,102022.81
2022-10-01T22:39:01.655Z,102026.08
2022-10-01T22:41:40.897Z,102027.89
2022-10-01T22:44:25.299Z,102028.05
2022-10-01T22:47:04.465Z,102029.71
2022-10-01T22:49:32.286Z,102031.85
2022-10-01T22:52:08.398Z,102029.29
2022-10-01T22:54:56.298Z,102028.70
2022-10-01T22:57:43.460Z,102032.34
2022-10-01T23:00:17.703Z,102027.65
2022-10-01T23:03:11.764Z,102030.91
2022-10-01T23:05:41.460Z,102029.74
2022-10-01T23:08:31.647Z,102035.67
2022-10-01T23:10:58.709Z,102034.49
2022-10-01T23:13:52.382Z,102032.52
2022-10-01T23:16:38.755Z,102032.84
2022-10-01T23:19:12.065Z,102036.80
2022-10-01T23:22:16.869Z,102044.72
2022-10-01T23:24:59.001Z,102049.46
2022-10-01T23:27:43.969Z,102048.98
2022-10-01T23:30:36.025Z,102053.07
2022-10-01T23:33:23.633Z,102054.13
2022-10-01T23:36:02.859Z,102047.66
2022-10-01T23:38:53.362Z,102050.98
2022-10-01T23:41:40.586Z,102059.27
2022-10-01T23:44:20.660Z,102061.30
2022-10-01T23:46:51.368Z,102057.45
2022-10-01T23:49:24.761Z,102049.27
2022-10-01T23:51:57.747Z,102054.83
2022-10-01T23:54:37.386Z,102051.30
2022-10-01T23:57:15.039Z,102050.83
2022-10-01T23:59:54.101Z,102051.09
